CZUM/ZUM METAR and TAF weather

Enter ICAO airport designator
Station Type Date Time Source
CZUM METAR 2020/12/01 21:21 UTC NOAA

CZUM 012121Z AUTO 11005KT 2 1/2SM -RA BR OVC011 01/00 A2986 RMK SLP139


Station Type Date Time Source
CZUM Decoded METAR 2020/12/01 21:21 UTC NOAA

Churchill Falls, Nfld., Canada (CZUM) 53-33N 064-06W 440M
Dec 01, 2020 - 04:21 PM EST / 2020.12.01 2121 UTC
Wind: from the ESE (110 degrees) at 6 MPH (5 KT):0
Visibility: 2 1/2 mile(s):0
Sky conditions: overcast
Weather: light rain; mist
Temperature: 33 F (1 C)
Windchill: 26 F (-3 C):1
Dew Point: 32 F (0 C)
Relative Humidity: 93%
Pressure (altimeter): 29.86 in. Hg (1011 hPa)
ob: CZUM 012121Z AUTO 11005KT 2 1/2SM -RA BR OVC011 01/00 A2986 RMK SLP139
cycle: 21

Station Type Date Time Source
CZUM TAF 2020/12/01 20:51 UTC NOAA

TAF CZUM 011938Z 0120/0208 12008KT 2SM -SN BKN003 OVC015
TEMPO 0120/0122 6SM -RASN BR SCT003 OVC015 PROB30 0120/0122 3SM -FZRA -PL BR
FM012200 10008KT 3SM -SNRA BR OVC005
TEMPO 0122/0201 6SM -RA BR SCT005 OVC010 PROB30 0122/0201 3SM -FZRA -PL BR
FM020100 06005KT 3SM -FZRA BR OVC008
TEMPO 0201/0208 6SM BR SCT008 OVC015
BECMG 0201/0203 02012G22KT
RMK FCST BASED ON AUTO OBS. NXT FCST BY 020200Z

Example: see airport list